sensor_id;sensor_type;location;lat;lon;timestamp;pressure;altitude;pressure_sealevel;temperature
71463;BMP180;59266;52.608;13.260;2023-04-25T00:00:12;100153.00;;;9.10
71463;BMP180;59266;52.608;13.260;2023-04-25T00:02:41;100170.00;;;9.10
71463;BMP180;59266;52.608;13.260;2023-04-25T00:05:09;100163.00;;;9.10
71463;BMP180;59266;52.608;13.260;2023-04-25T00:07:36;100163.00;;;9.10
71463;BMP180;59266;52.608;13.260;2023-04-25T00:10:03;100159.00;;;9.20
71463;BMP180;59266;52.608;13.260;2023-04-25T00:12:30;100156.00;;;9.20
71463;BMP180;59266;52.608;13.260;2023-04-25T00:14:57;100159.00;;;9.30
71463;BMP180;59266;52.608;13.260;2023-04-25T00:17:24;100165.00;;;9.30
71463;BMP180;59266;52.608;13.260;2023-04-25T00:19:51;100153.00;;;9.30
71463;BMP180;59266;52.608;13.260;2023-04-25T00:22:20;100167.00;;;9.40
71463;BMP180;59266;52.608;13.260;2023-04-25T00:24:47;100163.00;;;9.30
71463;BMP180;59266;52.608;13.260;2023-04-25T00:27:15;100164.00;;;9.30
71463;BMP180;59266;52.608;13.260;2023-04-25T00:29:42;100168.00;;;9.20
71463;BMP180;59266;52.608;13.260;2023-04-25T00:32:09;100165.00;;;9.30
71463;BMP180;59266;52.608;13.260;2023-04-25T00:34:37;100168.00;;;9.20
71463;BMP180;59266;52.608;13.260;2023-04-25T00:37:03;100163.00;;;9.20
71463;BMP180;59266;52.608;13.260;2023-04-25T00:39:30;100160.00;;;9.30
71463;BMP180;59266;52.608;13.260;2023-04-25T00:41:57;100150.00;;;9.20
71463;BMP180;59266;52.608;13.260;2023-04-25T00:44:24;100156.00;;;9.20
71463;BMP180;59266;52.608;13.260;2023-04-25T00:46:51;100160.00;;;9.20
71463;BMP180;59266;52.608;13.260;2023-04-25T00:49:18;100156.00;;;9.10
71463;BMP180;59266;52.608;13.260;2023-04-25T00:51:45;100148.00;;;9.20
71463;BMP180;59266;52.608;13.260;2023-04-25T00:54:12;100160.00;;;9.10
71463;BMP180;59266;52.608;13.260;2023-04-25T00:56:39;100148.00;;;9.10
71463;BMP180;59266;52.608;13.260;2023-04-25T00:59:06;100151.00;;;9.10
71463;BMP180;59266;52.608;13.260;2023-04-25T01:01:33;100155.00;;;9.00
71463;BMP180;59266;52.608;13.260;2023-04-25T01:04:00;100147.00;;;9.00
71463;BMP180;59266;52.608;13.260;2023-04-25T01:06:27;100145.00;;;9.10
71463;BMP180;59266;52.608;13.260;2023-04-25T01:08:54;100151.00;;;9.00
71463;BMP180;59266;52.608;13.260;2023-04-25T01:11:21;100147.00;;;9.00
71463;BMP180;59266;52.608;13.260;2023-04-25T01:13:51;100149.00;;;9.00
71463;BMP180;59266;52.608;13.260;2023-04-25T01:16:20;100141.00;;;9.00
71463;BMP180;59266;52.608;13.260;2023-04-25T01:18:47;100139.00;;;8.90
71463;BMP180;59266;52.608;13.260;2023-04-25T01:21:14;100151.00;;;9.00
71463;BMP180;59266;52.608;13.260;2023-04-25T01:23:42;100153.00;;;9.00
71463;BMP180;59266;52.608;13.260;2023-04-25T01:26:11;100143.00;;;9.00
71463;BMP180;59266;52.608;13.260;2023-04-25T01:28:39;100140.00;;;9.00
71463;BMP180;59266;52.608;13.260;2023-04-25T01:31:08;100140.00;;;9.00
71463;BMP180;59266;52.608;13.260;2023-04-25T01:33:35;100142.00;;;9.00
71463;BMP180;59266;52.608;13.260;2023-04-25T01:36:02;100147.00;;;9.00
71463;BMP180;59266;52.608;13.260;2023-04-25T01:38:29;100130.00;;;9.00
71463;BMP180;59266;52.608;13.260;2023-04-25T01:40:56;100140.00;;;9.10
71463;BMP180;59266;52.608;13.260;2023-04-25T01:43:24;100134.00;;;9.00
71463;BMP180;59266;52.608;13.260;2023-04-25T01:45:52;100138.00;;;9.10
71463;BMP180;59266;52.608;13.260;2023-04-25T01:48:19;100130.00;;;8.90
71463;BMP180;59266;52.608;13.260;2023-04-25T01:50:48;100129.00;;;8.90
71463;BMP180;59266;52.608;13.260;2023-04-25T01:53:15;100130.00;;;9.00
71463;BMP180;59266;52.608;13.260;2023-04-25T01:55:42;100142.00;;;9.00
71463;BMP180;59266;52.608;13.260;2023-04-25T01:58:09;100137.00;;;8.90
71463;BMP180;59266;52.608;13.260;2023-04-25T02:00:36;100140.00;;;8.90
71463;BMP180;59266;52.608;13.260;2023-04-25T02:03:07;100145.00;;;8.80
71463;BMP180;59266;52.608;13.260;2023-04-25T02:05:36;100141.00;;;8.80
71463;BMP180;59266;52.608;13.260;2023-04-25T02:08:06;100140.00;;;8.90
71463;BMP180;59266;52.608;13.260;2023-04-25T02:10:35;100139.00;;;8.90
71463;BMP180;59266;52.608;13.260;2023-04-25T02:13:02;100138.00;;;8.80
71463;BMP180;59266;52.608;13.260;2023-04-25T02:15:30;100143.00;;;8.80
71463;BMP180;59266;52.608;13.260;2023-04-25T02:17:57;100137.00;;;8.80
71463;BMP180;59266;52.608;13.260;2023-04-25T02:20:25;100141.00;;;8.80
71463;BMP180;59266;52.608;13.260;2023-04-25T02:22:52;100141.00;;;8.80
71463;BMP180;59266;52.608;13.260;2023-04-25T02:25:21;100129.00;;;8.80
71463;BMP180;59266;52.608;13.260;2023-04-25T02:27:48;100128.00;;;8.90
71463;BMP180;59266;52.608;13.260;2023-04-25T02:30:14;100132.00;;;8.70
71463;BMP180;59266;52.608;13.260;2023-04-25T02:32:41;100139.00;;;8.90
71463;BMP180;59266;52.608;13.260;2023-04-25T02:35:09;100134.00;;;8.80
71463;BMP180;59266;52.608;13.260;2023-04-25T02:37:37;100134.00;;;8.80
71463;BMP180;59266;52.608;13.260;2023-04-25T02:40:06;100137.00;;;8.90
71463;BMP180;59266;52.608;13.260;2023-04-25T02:42:33;100130.00;;;8.90
71463;BMP180;59266;52.608;13.260;2023-04-25T02:45:01;100135.00;;;8.80
71463;BMP180;59266;52.608;13.260;2023-04-25T02:47:29;100139.00;;;8.70
71463;BMP180;59266;52.608;13.260;2023-04-25T02:49:56;100146.00;;;8.80
71463;BMP180;59266;52.608;13.260;2023-04-25T02:52:23;100132.00;;;8.80
71463;BMP180;59266;52.608;13.260;2023-04-25T02:54:49;100136.00;;;8.70
71463;BMP180;59266;52.608;13.260;2023-04-25T02:57:16;100130.00;;;8.80
71463;BMP180;59266;52.608;13.260;2023-04-25T02:59:44;100136.00;;;8.80
71463;BMP180;59266;52.608;13.260;2023-04-25T03:02:10;100135.00;;;8.80
71463;BMP180;59266;52.608;13.260;2023-04-25T03:04:37;100134.00;;;8.80
71463;BMP180;59266;52.608;13.260;2023-04-25T03:07:04;100136.00;;;8.70
71463;BMP180;59266;52.608;13.260;2023-04-25T03:09:31;100137.00;;;8.80
71463;BMP180;59266;52.608;13.260;2023-04-25T03:11:58;100135.00;;;8.70
71463;BMP180;59266;52.608;13.260;2023-04-25T03:14:24;100127.00;;;8.70
71463;BMP180;59266;52.608;13.260;2023-04-25T03:16:53;100141.00;;;8.70
71463;BMP180;59266;52.608;13.260;2023-04-25T03:19:20;100139.00;;;8.70
71463;BMP180;59266;52.608;13.260;2023-04-25T03:21:47;100138.00;;;8.70
71463;BMP180;59266;52.608;13.260;2023-04-25T03:24:14;100143.00;;;8.70
71463;BMP180;59266;52.608;13.260;2023-04-25T03:26:44;100136.00;;;8.70
71463;BMP180;59266;52.608;13.260;2023-04-25T03:29:13;100141.00;;;8.80
71463;BMP180;59266;52.608;13.260;2023-04-25T03:31:40;100139.00;;;8.80
71463;BMP180;59266;52.608;13.260;2023-04-25T03:34:07;100146.00;;;8.80
71463;BMP180;59266;52.608;13.260;2023-04-25T03:36:33;100140.00;;;8.70
71463;BMP180;59266;52.608;13.260;2023-04-25T03:39:00;100143.00;;;8.70
71463;BMP180;59266;52.608;13.260;2023-04-25T03:41:27;100148.00;;;8.70
71463;BMP180;59266;52.608;13.260;2023-04-25T03:43:54;100145.00;;;8.70
71463;BMP180;59266;52.608;13.260;2023-04-25T03:46:20;100142.00;;;8.60
71463;BMP180;59266;52.608;13.260;2023-04-25T03:48:50;100136.00;;;8.70
71463;BMP180;59266;52.608;13.260;2023-04-25T03:51:17;100140.00;;;8.60
71463;BMP180;59266;52.608;13.260;2023-04-25T03:53:44;100147.00;;;8.60
71463;BMP180;59266;52.608;13.260;2023-04-25T03:56:11;100144.00;;;8.60
71463;BMP180;59266;52.608;13.260;2023-04-25T03:58:39;100138.00;;;8.60
71463;BMP180;59266;52.608;13.260;2023-04-25T04:01:06;100140.00;;;8.60
71463;BMP180;59266;52.608;13.260;2023-04-25T04:03:34;100150.00;;;8.60
71463;BMP180;59266;52.608;13.260;2023-04-25T04:06:05;100147.00;;;8.50
71463;BMP180;59266;52.608;13.260;2023-04-25T04:08:32;100154.00;;;8.60
71463;BMP180;59266;52.608;13.260;2023-04-25T04:10:59;100153.00;;;8.60
71463;BMP180;59266;52.608;13.260;2023-04-25T04:13:27;100153.00;;;8.60
71463;BMP180;59266;52.608;13.260;2023-04-25T04:15:54;100156.00;;;8.70
71463;BMP180;59266;52.608;13.260;2023-04-25T04:18:21;100158.00;;;8.70
71463;BMP180;59266;52.608;13.260;2023-04-25T04:20:49;100161.00;;;8.70
71463;BMP180;59266;52.608;13.260;2023-04-25T04:23:16;100155.00;;;8.70
71463;BMP180;59266;52.608;13.260;2023-04-25T04:25:43;100164.00;;;8.70
71463;BMP180;59266;52.608;13.260;2023-04-25T04:28:10;100160.00;;;8.70
71463;BMP180;59266;52.608;13.260;2023-04-25T04:30:37;100172.00;;;8.70
71463;BMP180;59266;52.608;13.260;2023-04-25T04:33:05;100180.00;;;8.70
71463;BMP180;59266;52.608;13.260;2023-04-25T04:35:32;100172.00;;;8.70
71463;BMP180;59266;52.608;13.260;2023-04-25T04:38:00;100169.00;;;8.60
71463;BMP180;59266;52.608;13.260;2023-04-25T04:40:27;100188.00;;;8.70
71463;BMP180;59266;52.608;13.260;2023-04-25T04:42:54;100176.00;;;8.70
71463;BMP180;59266;52.608;13.260;2023-04-25T04:45:23;100182.00;;;8.70
71463;BMP180;59266;52.608;13.260;2023-04-25T04:47:51;100190.00;;;8.80
71463;BMP180;59266;52.608;13.260;2023-04-25T04:50:18;100181.00;;;8.90
71463;BMP180;59266;52.608;13.260;2023-04-25T04:52:47;100191.00;;;8.90
71463;BMP180;59266;52.608;13.260;2023-04-25T04:55:14;100183.00;;;9.00
71463;BMP180;59266;52.608;13.260;2023-04-25T04:57:46;100183.00;;;8.90
71463;BMP180;59266;52.608;13.260;2023-04-25T05:00:12;100177.00;;;8.90
71463;BMP180;59266;52.608;13.260;2023-04-25T05:02:39;100184.00;;;9.00
71463;BMP180;59266;52.608;13.260;2023-04-25T05:05:06;100188.00;;;9.00
71463;BMP180;59266;52.608;13.260;2023-04-25T05:07:34;100190.00;;;9.00
71463;BMP180;59266;52.608;13.260;2023-04-25T05:10:00;100194.00;;;9.00
71463;BMP180;59266;52.608;13.260;2023-04-25T05:12:27;100193.00;;;8.90
71463;BMP180;59266;52.608;13.260;2023-04-25T05:14:54;100192.00;;;9.00
71463;BMP180;59266;52.608;13.260;2023-04-25T05:17:20;100184.00;;;9.00
71463;BMP180;59266;52.608;13.260;2023-04-25T05:19:47;100188.00;;;9.10
71463;BMP180;59266;52.608;13.260;2023-04-25T05:22:13;100195.00;;;9.00
71463;BMP180;59266;52.608;13.260;2023-04-25T05:24:40;100189.00;;;9.10
71463;BMP180;59266;52.608;13.260;2023-04-25T05:27:08;100196.00;;;9.10
71463;BMP180;59266;52.608;13.260;2023-04-25T05:29:35;100189.00;;;9.10
71463;BMP180;59266;52.608;13.260;2023-04-25T05:32:01;100195.00;;;9.20
71463;BMP180;59266;52.608;13.260;2023-04-25T05:34:28;100184.00;;;9.20
71463;BMP180;59266;52.608;13.260;2023-04-25T05:36:55;100194.00;;;9.30
71463;BMP180;59266;52.608;13.260;2023-04-25T05:39:21;100201.00;;;9.30
71463;BMP180;59266;52.608;13.260;2023-04-25T05:41:48;100206.00;;;9.20
71463;BMP180;59266;52.608;13.260;2023-04-25T05:44:15;100195.00;;;9.20
71463;BMP180;59266;52.608;13.260;2023-04-25T05:46:42;100202.00;;;9.20
71463;BMP180;59266;52.608;13.260;2023-04-25T05:49:10;100202.00;;;9.10
71463;BMP180;59266;52.608;13.260;2023-04-25T05:51:36;100193.00;;;9.20
71463;BMP180;59266;52.608;13.260;2023-04-25T05:54:03;100209.00;;;9.40
71463;BMP180;59266;52.608;13.260;2023-04-25T05:56:30;100205.00;;;9.40
71463;BMP180;59266;52.608;13.260;2023-04-25T05:58:57;100212.00;;;9.30
71463;BMP180;59266;52.608;13.260;2023-04-25T06:01:23;100206.00;;;9.40
71463;BMP180;59266;52.608;13.260;2023-04-25T06:03:50;100209.00;;;9.50
71463;BMP180;59266;52.608;13.260;2023-04-25T06:06:19;100217.00;;;9.40
71463;BMP180;59266;52.608;13.260;2023-04-25T06:08:46;100216.00;;;9.40
71463;BMP180;59266;52.608;13.260;2023-04-25T06:11:13;100230.00;;;9.40
71463;BMP180;59266;52.608;13.260;2023-04-25T06:13:39;100220.00;;;9.20
71463;BMP180;59266;52.608;13.260;2023-04-25T06:16:06;100220.00;;;9.00
71463;BMP180;59266;52.608;13.260;2023-04-25T06:18:35;100229.00;;;9.00
71463;BMP180;59266;52.608;13.260;2023-04-25T06:21:02;100222.00;;;9.10
71463;BMP180;59266;52.608;13.260;2023-04-25T06:23:28;100226.00;;;9.10
71463;BMP180;59266;52.608;13.260;2023-04-25T06:25:55;100226.00;;;9.30
71463;BMP180;59266;52.608;13.260;2023-04-25T06:28:22;100228.00;;;9.20
71463;BMP180;59266;52.608;13.260;2023-04-25T06:30:50;100232.00;;;9.20
71463;BMP180;59266;52.608;13.260;2023-04-25T06:33:16;100233.00;;;9.20
71463;BMP180;59266;52.608;13.260;2023-04-25T06:35:43;100231.00;;;9.20
71463;BMP180;59266;52.608;13.260;2023-04-25T06:38:10;100237.00;;;9.20
71463;BMP180;59266;52.608;13.260;2023-04-25T06:40:36;100234.00;;;9.10
71463;BMP180;59266;52.608;13.260;2023-04-25T06:43:03;100231.00;;;9.10
71463;BMP180;59266;52.608;13.260;2023-04-25T06:45:31;100233.00;;;9.20
71463;BMP180;59266;52.608;13.260;2023-04-25T06:47:58;100241.00;;;9.10
71463;BMP180;59266;52.608;13.260;2023-04-25T06:50:26;100234.00;;;9.10
71463;BMP180;59266;52.608;13.260;2023-04-25T06:52:53;100244.00;;;9.10
71463;BMP180;59266;52.608;13.260;2023-04-25T06:55:21;100246.00;;;9.00
71463;BMP180;59266;52.608;13.260;2023-04-25T06:57:47;100247.00;;;8.90
71463;BMP180;59266;52.608;13.260;2023-04-25T07:00:14;100252.00;;;9.00
71463;BMP180;59266;52.608;13.260;2023-04-25T07:02:41;100242.00;;;8.90
71463;BMP180;59266;52.608;13.260;2023-04-25T07:05:09;100249.00;;;8.90
71463;BMP180;59266;52.608;13.260;2023-04-25T07:07:36;100244.00;;;9.00
71463;BMP180;59266;52.608;13.260;2023-04-25T07:10:03;100248.00;;;9.10
71463;BMP180;59266;52.608;13.260;2023-04-25T07:12:30;100250.00;;;9.10
71463;BMP180;59266;52.608;13.260;2023-04-25T07:14:57;100252.00;;;9.30
71463;BMP180;59266;52.608;13.260;2023-04-25T07:17:25;100254.00;;;9.20
71463;BMP180;59266;52.608;13.260;2023-04-25T07:19:52;100250.00;;;9.50
71463;BMP180;59266;52.608;13.260;2023-04-25T07:22:18;100261.00;;;9.40
71463;BMP180;59266;52.608;13.260;2023-04-25T07:24:49;100258.00;;;9.30
71463;BMP180;59266;52.608;13.260;2023-04-25T07:27:17;100266.00;;;9.40
71463;BMP180;59266;52.608;13.260;2023-04-25T07:29:43;100270.00;;;9.30
71463;BMP180;59266;52.608;13.260;2023-04-25T07:32:10;100279.00;;;9.30
71463;BMP180;59266;52.608;13.260;2023-04-25T07:34:40;100272.00;;;9.30
71463;BMP180;59266;52.608;13.260;2023-04-25T07:37:07;100276.00;;;9.60
71463;BMP180;59266;52.608;13.260;2023-04-25T07:39:34;100267.00;;;9.40
71463;BMP180;59266;52.608;13.260;2023-04-25T07:42:01;100274.00;;;9.60
71463;BMP180;59266;52.608;13.260;2023-04-25T07:44:29;100280.00;;;9.80
71463;BMP180;59266;52.608;13.260;2023-04-25T07:46:56;100298.00;;;9.90
71463;BMP180;59266;52.608;13.260;2023-04-25T07:49:23;100283.00;;;10.00
71463;BMP180;59266;52.608;13.260;2023-04-25T07:51:50;100282.00;;;9.90
71463;BMP180;59266;52.608;13.260;2023-04-25T07:54:17;100286.00;;;10.40
71463;BMP180;59266;52.608;13.260;2023-04-25T07:56:45;100293.00;;;10.50
71463;BMP180;59266;52.608;13.260;2023-04-25T07:59:19;100288.00;;;10.50
71463;BMP180;59266;52.608;13.260;2023-04-25T08:01:45;100296.00;;;10.60
71463;BMP180;59266;52.608;13.260;2023-04-25T08:04:12;100304.00;;;10.70
71463;BMP180;59266;52.608;13.260;2023-04-25T08:06:40;100304.00;;;10.30
71463;BMP180;59266;52.608;13.260;2023-04-25T08:09:09;100305.00;;;10.30
71463;BMP180;59266;52.608;13.260;2023-04-25T08:11:36;100313.00;;;10.60
71463;BMP180;59266;52.608;13.260;2023-04-25T08:14:05;100310.00;;;10.80
71463;BMP180;59266;52.608;13.260;2023-04-25T08:16:31;100319.00;;;10.90
71463;BMP180;59266;52.608;13.260;2023-04-25T08:18:59;100307.00;;;11.10
71463;BMP180;59266;52.608;13.260;2023-04-25T08:21:26;100313.00;;;11.00
71463;BMP180;59266;52.608;13.260;2023-04-25T08:23:54;100322.00;;;10.80
71463;BMP180;59266;52.608;13.260;2023-04-25T08:26:21;100343.00;;;10.60
71463;BMP180;59266;52.608;13.260;2023-04-25T08:28:47;100336.00;;;10.40
71463;BMP180;59266;52.608;13.260;2023-04-25T08:31:14;100314.00;;;11.00
71463;BMP180;59266;52.608;13.260;2023-04-25T08:33:43;100324.00;;;13.20
71463;BMP180;59266;52.608;13.260;2023-04-25T08:36:13;100336.00;;;12.50
71463;BMP180;59266;52.608;13.260;2023-04-25T08:38:50;100340.00;;;12.00
71463;BMP180;59266;52.608;13.260;2023-04-25T08:41:20;100344.00;;;12.30
71463;BMP180;59266;52.608;13.260;2023-04-25T08:43:48;100345.00;;;11.50
71463;BMP180;59266;52.608;13.260;2023-04-25T08:46:19;100348.00;;;12.10
71463;BMP180;59266;52.608;13.260;2023-04-25T08:48:46;100352.00;;;12.10
71463;BMP180;59266;52.608;13.260;2023-04-25T08:51:21;100352.00;;;12.10
71463;BMP180;59266;52.608;13.260;2023-04-25T08:53:51;100343.00;;;13.80
71463;BMP180;59266;52.608;13.260;2023-04-25T08:56:27;100343.00;;;14.00
71463;BMP180;59266;52.608;13.260;2023-04-25T08:58:56;100340.00;;;14.80
71463;BMP180;59266;52.608;13.260;2023-04-25T09:01:23;100343.00;;;15.20
71463;BMP180;59266;52.608;13.260;2023-04-25T09:03:52;100323.00;;;18.60
71463;BMP180;59266;52.608;13.260;2023-04-25T09:06:19;100353.00;;;18.00
71463;BMP180;59266;52.608;13.260;2023-04-25T09:08:46;100336.00;;;17.50
71463;BMP180;59266;52.608;13.260;2023-04-25T09:11:12;100324.00;;;17.40
71463;BMP180;59266;52.608;13.260;2023-04-25T09:13:41;100350.00;;;21.10
71463;BMP180;59266;52.608;13.260;2023-04-25T09:16:08;100323.00;;;20.10
71463;BMP180;59266;52.608;13.260;2023-04-25T09:18:37;100330.00;;;17.30
71463;BMP180;59266;52.608;13.260;2023-04-25T09:21:09;100340.00;;;16.60
71463;BMP180;59266;52.608;13.260;2023-04-25T09:23:47;100326.00;;;15.60
71463;BMP180;59266;52.608;13.260;2023-04-25T09:26:16;100370.00;;;17.50
71463;BMP180;59266;52.608;13.260;2023-04-25T09:28:43;100376.00;;;17.70
71463;BMP180;59266;52.608;13.260;2023-04-25T09:31:10;100370.00;;;15.60
71463;BMP180;59266;52.608;13.260;2023-04-25T09:33:40;100382.00;;;15.20
71463;BMP180;59266;52.608;13.260;2023-04-25T09:36:08;100385.00;;;14.60
71463;BMP180;59266;52.608;13.260;2023-04-25T09:38:46;100389.00;;;14.60
71463;BMP180;59266;52.608;13.260;2023-04-25T09:41:13;100397.00;;;14.20
71463;BMP180;59266;52.608;13.260;2023-04-25T09:43:39;100396.00;;;14.00
71463;BMP180;59266;52.608;13.260;2023-04-25T09:46:10;100399.00;;;13.20
71463;BMP180;59266;52.608;13.260;2023-04-25T09:48:39;100404.00;;;13.40
71463;BMP180;59266;52.608;13.260;2023-04-25T09:51:13;100365.00;;;14.20
71463;BMP180;59266;52.608;13.260;2023-04-25T09:53:41;100369.00;;;16.00
71463;BMP180;59266;52.608;13.260;2023-04-25T09:56:11;100365.00;;;19.10
71463;BMP180;59266;52.608;13.260;2023-04-25T09:58:41;100364.00;;;19.20
71463;BMP180;59266;52.608;13.260;2023-04-25T10:01:09;100394.00;;;17.80
71463;BMP180;59266;52.608;13.260;2023-04-25T10:03:39;100390.00;;;16.30
71463;BMP180;59266;52.608;13.260;2023-04-25T10:06:08;100413.00;;;15.10
71463;BMP180;59266;52.608;13.260;2023-04-25T10:08:36;100409.00;;;14.70
71463;BMP180;59266;52.608;13.260;2023-04-25T10:11:06;100417.00;;;13.60
71463;BMP180;59266;52.608;13.260;2023-04-25T10:13:35;100413.00;;;13.30
71463;BMP180;59266;52.608;13.260;2023-04-25T10:16:04;100415.00;;;13.40
71463;BMP180;59266;52.608;13.260;2023-04-25T10:18:34;100412.00;;;13.10
71463;BMP180;59266;52.608;13.260;2023-04-25T10:21:02;100411.00;;;13.30
71463;BMP180;59266;52.608;13.260;2023-04-25T10:23:31;100418.00;;;13.60
71463;BMP180;59266;52.608;13.260;2023-04-25T10:26:01;100422.00;;;14.30
71463;BMP180;59266;52.608;13.260;2023-04-25T10:28:28;100428.00;;;14.00
71463;BMP180;59266;52.608;13.260;2023-04-25T10:31:08;100420.00;;;13.10
71463;BMP180;59266;52.608;13.260;2023-04-25T10:33:36;100423.00;;;13.40
71463;BMP180;59266;52.608;13.260;2023-04-25T10:36:23;100423.00;;;14.00
71463;BMP180;59266;52.608;13.260;2023-04-25T10:38:51;100414.00;;;14.30
71463;BMP180;59266;52.608;13.260;2023-04-25T10:41:21;100409.00;;;14.60
71463;BMP180;59266;52.608;13.260;2023-04-25T10:43:50;100415.00;;;15.30
71463;BMP180;59266;52.608;13.260;2023-04-25T10:46:26;100413.00;;;15.10
71463;BMP180;59266;52.608;13.260;2023-04-25T10:48:55;100435.00;;;14.90
71463;BMP180;59266;52.608;13.260;2023-04-25T10:59:14;100464.00;;;11.60
71463;BMP180;59266;52.608;13.260;2023-04-25T11:01:51;100468.00;;;11.60
71463;BMP180;59266;52.608;13.260;2023-04-25T11:04:22;100479.00;;;11.80
71463;BMP180;59266;52.608;13.260;2023-04-25T11:07:02;100478.00;;;11.50
71463;BMP180;59266;52.608;13.260;2023-04-25T11:09:34;100480.00;;;11.80
71463;BMP180;59266;52.608;13.260;2023-04-25T11:12:01;100477.00;;;11.20
71463;BMP180;59266;52.608;13.260;2023-04-25T11:14:28;100476.00;;;11.70
71463;BMP180;59266;52.608;13.260;2023-04-25T11:16:57;100477.00;;;12.00
71463;BMP180;59266;52.608;13.260;2023-04-25T11:19:26;100482.00;;;12.30
71463;BMP180;59266;52.608;13.260;2023-04-25T11:21:58;100477.00;;;12.20
71463;BMP180;59266;52.608;13.260;2023-04-25T11:24:34;100475.00;;;13.00
71463;BMP180;59266;52.608;13.260;2023-04-25T11:27:04;100467.00;;;12.90
71463;BMP180;59266;52.608;13.260;2023-04-25T11:29:32;100490.00;;;13.00
71463;BMP180;59266;52.608;13.260;2023-04-25T11:31:59;100491.00;;;12.60
71463;BMP180;59266;52.608;13.260;2023-04-25T11:34:28;100491.00;;;12.70
71463;BMP180;59266;52.608;13.260;2023-04-25T11:37:00;100492.00;;;12.40
71463;BMP180;59266;52.608;13.260;2023-04-25T11:39:29;100491.00;;;12.50
71463;BMP180;59266;52.608;13.260;2023-04-25T11:41:56;100496.00;;;13.00
71463;BMP180;59266;52.608;13.260;2023-04-25T11:44:23;100491.00;;;12.90
71463;BMP180;59266;52.608;13.260;2023-04-25T11:46:50;100498.00;;;13.40
71463;BMP180;59266;52.608;13.260;2023-04-25T11:49:17;100515.00;;;13.10
71463;BMP180;59266;52.608;13.260;2023-04-25T11:51:46;100496.00;;;12.60
71463;BMP180;59266;52.608;13.260;2023-04-25T11:54:14;100493.00;;;13.10
71463;BMP180;59266;52.608;13.260;2023-04-25T11:56:45;100516.00;;;13.30
71463;BMP180;59266;52.608;13.260;2023-04-25T11:59:12;100515.00;;;12.60
71463;BMP180;59266;52.608;13.260;2023-04-25T12:01:48;100510.00;;;12.60
71463;BMP180;59266;52.608;13.260;2023-04-25T12:04:19;100528.00;;;12.60
71463;BMP180;59266;52.608;13.260;2023-04-25T12:06:48;100513.00;;;12.50
71463;BMP180;59266;52.608;13.260;2023-04-25T12:09:18;100509.00;;;12.60
71463;BMP180;59266;52.608;13.260;2023-04-25T12:11:46;100512.00;;;12.60
71463;BMP180;59266;52.608;13.260;2023-04-25T12:14:24;100501.00;;;12.80
71463;BMP180;59266;52.608;13.260;2023-04-25T12:16:55;100508.00;;;13.10
71463;BMP180;59266;52.608;13.260;2023-04-25T12:19:23;100519.00;;;13.00
71463;BMP180;59266;52.608;13.260;2023-04-25T12:21:50;100529.00;;;13.20
71463;BMP180;59266;52.608;13.260;2023-04-25T12:24:23;100515.00;;;12.60
71463;BMP180;59266;52.608;13.260;2023-04-25T12:27:02;100519.00;;;12.60
71463;BMP180;59266;52.608;13.260;2023-04-25T12:29:32;100526.00;;;12.00
71463;BMP180;59266;52.608;13.260;2023-04-25T12:32:13;100517.00;;;11.90
71463;BMP180;59266;52.608;13.260;2023-04-25T12:34:40;100516.00;;;12.00
71463;BMP180;59266;52.608;13.260;2023-04-25T12:37:07;100517.00;;;12.10
71463;BMP180;59266;52.608;13.260;2023-04-25T12:39:33;100519.00;;;12.10
71463;BMP180;59266;52.608;13.260;2023-04-25T12:42:02;100518.00;;;12.50
71463;BMP180;59266;52.608;13.260;2023-04-25T12:44:34;100521.00;;;12.90
71463;BMP180;59266;52.608;13.260;2023-04-25T12:47:03;100523.00;;;13.30
71463;BMP180;59266;52.608;13.260;2023-04-25T12:49:30;100510.00;;;12.80
71463;BMP180;59266;52.608;13.260;2023-04-25T12:51:57;100514.00;;;12.60
71463;BMP180;59266;52.608;13.260;2023-04-25T12:54:24;100521.00;;;13.20
71463;BMP180;59266;52.608;13.260;2023-04-25T12:56:51;100512.00;;;13.70
71463;BMP180;59266;52.608;13.260;2023-04-25T12:59:18;100490.00;;;14.00
71463;BMP180;59266;52.608;13.260;2023-04-25T13:01:47;100511.00;;;13.90
71463;BMP180;59266;52.608;13.260;2023-04-25T13:04:14;100521.00;;;13.90
71463;BMP180;59266;52.608;13.260;2023-04-25T13:06:41;100523.00;;;13.20
71463;BMP180;59266;52.608;13.260;2023-04-25T13:09:08;100529.00;;;13.40
71463;BMP180;59266;52.608;13.260;2023-04-25T13:11:37;100529.00;;;12.60
71463;BMP180;59266;52.608;13.260;2023-04-25T13:14:04;100534.00;;;12.20
71463;BMP180;59266;52.608;13.260;2023-04-25T13:16:34;100542.00;;;12.10
71463;BMP180;59266;52.608;13.260;2023-04-25T13:19:02;100543.00;;;11.80
71463;BMP180;59266;52.608;13.260;2023-04-25T13:21:32;100546.00;;;11.80
71463;BMP180;59266;52.608;13.260;2023-04-25T13:23:59;100556.00;;;11.70
71463;BMP180;59266;52.608;13.260;2023-04-25T13:26:25;100550.00;;;11.50
71463;BMP180;59266;52.608;13.260;2023-04-25T13:28:52;100551.00;;;11.90
71463;BMP180;59266;52.608;13.260;2023-04-25T13:31:18;100556.00;;;11.30
71463;BMP180;59266;52.608;13.260;2023-04-25T13:33:45;100564.00;;;11.40
71463;BMP180;59266;52.608;13.260;2023-04-25T13:36:12;100557.00;;;11.70
71463;BMP180;59266;52.608;13.260;2023-04-25T13:38:39;100558.00;;;11.90
71463;BMP180;59266;52.608;13.260;2023-04-25T13:41:10;100548.00;;;12.40
71463;BMP180;59266;52.608;13.260;2023-04-25T13:43:40;100539.00;;;13.10
71463;BMP180;59266;52.608;13.260;2023-04-25T13:46:09;100549.00;;;13.00
71463;BMP180;59266;52.608;13.260;2023-04-25T13:48:56;100550.00;;;12.70
71463;BMP180;59266;52.608;13.260;2023-04-25T13:51:38;100539.00;;;13.10
71463;BMP180;59266;52.608;13.260;2023-04-25T13:54:04;100543.00;;;13.20
71463;BMP180;59266;52.608;13.260;2023-04-25T13:56:31;100555.00;;;13.00
71463;BMP180;59266;52.608;13.260;2023-04-25T13:58:57;100557.00;;;12.90
71463;BMP180;59266;52.608;13.260;2023-04-25T14:01:30;100560.00;;;12.60
71463;BMP180;59266;52.608;13.260;2023-04-25T14:04:01;100561.00;;;12.40